createdAt,value
2019-05-28T00:02:01.731Z,18.00
2019-05-28T00:04:31.276Z,18.00
2019-05-28T00:07:00.174Z,18.00
2019-05-28T00:09:29.130Z,18.00
2019-05-28T00:11:58.090Z,18.00
2019-05-28T00:14:27.230Z,17.90
2019-05-28T00:16:56.111Z,17.90
2019-05-28T00:19:24.945Z,17.80
2019-05-28T00:21:53.867Z,17.90
2019-05-28T00:24:22.710Z,17.90
2019-05-28T00:26:51.548Z,17.90
2019-05-28T00:29:20.563Z,17.90
2019-05-28T00:31:49.448Z,17.90
2019-05-28T00:34:18.339Z,17.80
2019-05-28T00:36:47.194Z,17.80
2019-05-28T00:39:16.063Z,17.90
2019-05-28T00:41:44.954Z,17.80
2019-05-28T00:44:13.748Z,17.80
2019-05-28T00:46:42.704Z,17.80
2019-05-28T00:49:11.706Z,17.60
2019-05-28T00:51:42.337Z,17.60
2019-05-28T00:54:19.703Z,17.60
2019-05-28T00:56:50.284Z,17.60
2019-05-28T00:59:20.749Z,17.50
2019-05-28T01:01:49.583Z,17.40
2019-05-28T01:04:18.481Z,17.40
2019-05-28T01:06:47.338Z,17.40
2019-05-28T01:09:16.180Z,17.50
2019-05-28T01:11:45.076Z,17.50
2019-05-28T01:14:13.939Z,17.50
2019-05-28T01:16:42.891Z,17.50
2019-05-28T01:19:11.715Z,17.40
2019-05-28T01:21:42.534Z,17.20
2019-05-28T01:24:11.263Z,17.30
2019-05-28T01:26:40.094Z,17.20
2019-05-28T01:29:08.944Z,17.10
2019-05-28T01:31:37.875Z,17.10
2019-05-28T01:34:06.705Z,16.90
2019-05-28T01:36:35.566Z,16.90
2019-05-28T01:39:06.079Z,16.90
2019-05-28T01:41:35.017Z,16.90
2019-05-28T01:44:03.966Z,16.90
2019-05-28T01:46:32.811Z,16.80
2019-05-28T01:49:01.703Z,16.60
2019-05-28T01:51:30.575Z,16.40
2019-05-28T01:53:59.413Z,16.60
2019-05-28T01:56:28.239Z,16.20
2019-05-28T01:58:57.233Z,16.10
2019-05-28T02:01:26.051Z,15.90
2019-05-28T02:03:54.862Z,15.80
2019-05-28T02:06:23.776Z,15.90
2019-05-28T02:08:52.770Z,15.80
2019-05-28T02:11:21.643Z,15.70
2019-05-28T02:13:50.509Z,15.60
2019-05-28T02:16:19.392Z,15.60
2019-05-28T02:18:48.240Z,15.60
2019-05-28T02:21:17.136Z,15.90
2019-05-28T02:23:46.074Z,15.80
2019-05-28T02:26:14.896Z,16.00
2019-05-28T02:28:43.771Z,16.20
2019-05-28T02:31:26.936Z,16.20
2019-05-28T02:33:43.068Z,16.40
2019-05-28T02:36:11.996Z,16.40
2019-05-28T02:38:40.803Z,16.40
2019-05-28T02:41:09.642Z,16.30
2019-05-28T02:43:38.545Z,16.20
2019-05-28T02:46:07.577Z,16.40
2019-05-28T02:48:36.545Z,15.80
2019-05-28T02:51:06.061Z,15.70
2019-05-28T02:53:35.121Z,16.00
2019-05-28T02:56:04.834Z,16.00
2019-05-28T02:58:35.776Z,15.90
2019-05-28T03:01:07.104Z,15.90
2019-05-28T03:03:36.223Z,15.80
2019-05-28T03:06:07.276Z,15.90
2019-05-28T03:08:36.312Z,15.80
2019-05-28T03:11:05.581Z,16.00
2019-05-28T03:13:34.553Z,15.80
2019-05-28T03:16:06.480Z,15.70
2019-05-28T03:18:38.885Z,15.70
2019-05-28T03:21:09.790Z,15.60
2019-05-28T03:23:41.026Z,15.80
2019-05-28T03:26:10.085Z,15.90
2019-05-28T03:28:39.215Z,16.20
2019-05-28T03:31:08.485Z,16.30
2019-05-28T03:33:37.487Z,16.20
2019-05-28T03:36:09.601Z,16.40
2019-05-28T03:38:40.033Z,16.50
2019-05-28T03:41:08.989Z,16.50
2019-05-28T03:43:37.947Z,16.50
2019-05-28T03:46:06.947Z,16.40
2019-05-28T03:48:35.939Z,16.40
2019-05-28T03:51:05.075Z,16.30
2019-05-28T03:53:34.041Z,16.20
2019-05-28T03:56:03.086Z,16.20
2019-05-28T03:58:32.132Z,16.10
2019-05-28T04:01:01.142Z,16.10
2019-05-28T04:03:30.128Z,16.20
2019-05-28T04:05:58.998Z,16.20
2019-05-28T04:08:28.035Z,16.30
2019-05-28T04:10:56.907Z,16.30
2019-05-28T04:13:25.984Z,16.40
2019-05-28T04:15:54.900Z,16.20
2019-05-28T04:18:23.895Z,16.20
2019-05-28T04:20:52.815Z,16.30
2019-05-28T04:23:21.742Z,16.20
2019-05-28T04:25:50.641Z,16.30
2019-05-28T04:28:19.762Z,16.10
2019-05-28T04:30:48.637Z,15.80
2019-05-28T04:33:17.469Z,16.00
2019-05-28T04:35:47.926Z,16.20
2019-05-28T04:38:16.812Z,16.30
2019-05-28T04:40:45.650Z,16.30
2019-05-28T04:43:14.593Z,16.50
2019-05-28T04:45:43.451Z,16.30
2019-05-28T04:48:12.274Z,16.40
2019-05-28T04:50:41.255Z,16.40
2019-05-28T04:53:10.120Z,16.50
2019-05-28T04:55:39.050Z,16.70
2019-05-28T04:58:07.902Z,16.70
2019-05-28T05:00:36.845Z,16.50
2019-05-28T05:03:05.783Z,16.60
2019-05-28T05:05:34.768Z,16.70
2019-05-28T05:08:03.672Z,16.60
2019-05-28T05:10:32.620Z,16.70
2019-05-28T05:13:04.440Z,16.70
2019-05-28T05:15:33.512Z,16.80
2019-05-28T05:18:02.462Z,16.60
2019-05-28T05:20:31.368Z,16.60
2019-05-28T05:23:00.254Z,16.80
2019-05-28T05:25:29.267Z,16.90
2019-05-28T05:27:58.278Z,16.80
2019-05-28T05:30:27.219Z,16.80
2019-05-28T05:32:56.067Z,16.70
2019-05-28T05:35:24.921Z,16.70
2019-05-28T05:37:53.930Z,16.80
2019-05-28T05:40:24.135Z,16.90
2019-05-28T05:42:53.284Z,16.90
2019-05-28T05:45:22.239Z,16.90
2019-05-28T05:47:51.118Z,17.00
2019-05-28T05:50:20.027Z,17.10
2019-05-28T05:52:48.951Z,17.10
2019-05-28T05:55:17.981Z,17.10
2019-05-28T05:57:47.064Z,17.10
2019-05-28T06:00:17.812Z,16.90
2019-05-28T06:02:46.796Z,17.00
2019-05-28T06:05:15.796Z,17.10
2019-05-28T06:07:44.637Z,17.10
2019-05-28T06:10:14.458Z,16.90
2019-05-28T06:12:43.428Z,17.00
2019-05-28T06:15:12.980Z,17.20
2019-05-28T06:17:42.446Z,17.00
2019-05-28T06:20:12.036Z,17.20
2019-05-28T06:22:40.880Z,17.30
2019-05-28T06:25:09.857Z,17.30
2019-05-28T06:27:38.664Z,17.30
2019-05-28T06:30:08.299Z,17.20
2019-05-28T06:32:38.454Z,17.40
2019-05-28T06:35:08.808Z,17.70
2019-05-28T06:37:38.084Z,17.80
2019-05-28T06:40:07.493Z,18.00
2019-05-28T06:42:39.278Z,17.70
2019-05-28T06:45:08.077Z,17.40
2019-05-28T06:47:37.154Z,17.40
2019-05-28T06:50:07.442Z,17.50
2019-05-28T06:53:00.405Z,17.80
2019-05-28T06:55:30.302Z,18.10
2019-05-28T06:58:02.314Z,18.20
2019-05-28T07:00:30.694Z,17.60
2019-05-28T07:03:00.049Z,17.30
2019-05-28T07:05:29.063Z,17.50
2019-05-28T07:07:57.951Z,17.80
2019-05-28T07:10:27.175Z,18.20
2019-05-28T07:12:56.063Z,17.40
2019-05-28T07:15:32.585Z,17.80
2019-05-28T07:18:01.587Z,17.70
2019-05-28T07:20:30.729Z,18.10
2019-05-28T07:22:59.545Z,18.10
2019-05-28T07:25:28.396Z,18.00
2019-05-28T07:28:10.596Z,18.30
2019-05-28T07:30:27.974Z,18.40
2019-05-28T07:32:56.868Z,18.80
2019-05-28T07:35:25.945Z,19.00
2019-05-28T07:37:54.888Z,19.00
2019-05-28T07:40:31.458Z,19.00
2019-05-28T07:42:54.617Z,18.90
2019-05-28T07:45:23.594Z,18.80
2019-05-28T07:47:52.434Z,18.80
2019-05-28T07:50:21.616Z,18.80
2019-05-28T07:52:50.554Z,18.80
2019-05-28T07:55:19.647Z,18.90
2019-05-28T07:57:48.807Z,19.00
2019-05-28T08:00:21.399Z,18.80
2019-05-28T08:02:50.394Z,19.00
2019-05-28T08:05:19.416Z,19.10
2019-05-28T08:07:48.334Z,18.90
2019-05-28T08:10:17.346Z,19.20
2019-05-28T08:12:46.341Z,19.30
2019-05-28T08:15:15.374Z,18.70
2019-05-28T08:17:44.226Z,18.80
2019-05-28T08:20:13.465Z,19.20
2019-05-28T08:22:43.275Z,19.40
2019-05-28T08:25:27.397Z,18.70
2019-05-28T08:27:43.180Z,19.00
2019-05-28T08:30:12.297Z,19.10
2019-05-28T08:32:41.350Z,18.80
2019-05-28T08:35:10.543Z,18.90
2019-05-28T08:37:39.436Z,18.70
2019-05-28T08:40:09.072Z,19.10
2019-05-28T08:42:38.091Z,19.60
2019-05-28T08:45:07.533Z,19.80
2019-05-28T08:47:36.468Z,19.90
2019-05-28T08:50:05.914Z,19.90
2019-05-28T08:52:34.812Z,19.90
2019-05-28T08:55:04.053Z,20.00
2019-05-28T08:57:32.966Z,20.00
2019-05-28T09:00:01.970Z,20.00
2019-05-28T09:02:30.946Z,19.90
2019-05-28T09:04:59.789Z,19.60
2019-05-28T09:07:28.660Z,19.50
2019-05-28T09:09:57.447Z,19.70
2019-05-28T09:12:26.278Z,19.60
2019-05-28T09:14:56.583Z,19.70
2019-05-28T09:17:25.716Z,19.90
2019-05-28T09:19:54.660Z,20.10
2019-05-28T09:22:26.126Z,20.00
2019-05-28T09:24:54.205Z,19.40
2019-05-28T09:27:23.138Z,19.20
2019-05-28T09:29:55.210Z,18.70
2019-05-28T09:32:22.622Z,18.60
2019-05-28T09:34:51.513Z,19.00
2019-05-28T09:37:20.543Z,19.00
2019-05-28T09:39:49.408Z,18.90
2019-05-28T09:42:18.312Z,19.00
2019-05-28T09:44:47.166Z,19.40
2019-05-28T09:47:16.025Z,19.70
2019-05-28T09:49:44.870Z,20.00
2019-05-28T09:52:13.769Z,20.10
2019-05-28T09:54:47.824Z,20.20
2019-05-28T09:57:16.641Z,18.80
2019-05-28T09:59:45.588Z,19.20
2019-05-28T10:02:14.623Z,18.70
2019-05-28T10:04:49.102Z,18.70
2019-05-28T10:07:14.259Z,19.10
2019-05-28T10:09:43.475Z,19.20
2019-05-28T10:12:12.428Z,19.30
2019-05-28T10:14:44.208Z,19.20
2019-05-28T10:17:12.007Z,18.90
2019-05-28T10:19:41.065Z,19.10
2019-05-28T10:22:10.088Z,18.80
2019-05-28T10:24:39.145Z,19.00
2019-05-28T10:27:07.977Z,19.00
2019-05-28T10:29:36.848Z,18.80
2019-05-28T10:32:05.813Z,18.80
2019-05-28T10:34:34.640Z,19.30
2019-05-28T10:37:03.734Z,19.40
2019-05-28T10:39:32.837Z,19.80
2019-05-28T10:42:01.979Z,20.00
2019-05-28T10:44:30.876Z,20.00
2019-05-28T10:46:59.765Z,20.30
2019-05-28T10:49:28.804Z,20.50
2019-05-28T10:51:57.636Z,20.20
2019-05-28T10:54:26.566Z,20.20
2019-05-28T10:56:55.367Z,20.50
2019-05-28T10:59:24.297Z,21.70
2019-05-28T11:01:53.266Z,21.20
2019-05-28T11:04:22.351Z,20.20
2019-05-28T11:06:52.345Z,21.30
2019-05-28T11:09:21.403Z,22.10
2019-05-28T11:11:50.511Z,21.30
2019-05-28T11:14:19.366Z,21.10
2019-05-28T11:16:48.421Z,22.70
2019-05-28T11:19:17.375Z,23.50
2019-05-28T11:21:46.204Z,23.20
2019-05-28T11:24:15.247Z,22.20
2019-05-28T11:26:44.349Z,22.30
2019-05-28T11:29:13.415Z,21.30
2019-05-28T11:31:42.187Z,21.70
2019-05-28T11:34:11.096Z,21.80
2019-05-28T11:36:40.114Z,20.70
2019-05-28T11:39:10.385Z,20.40
2019-05-28T11:41:42.290Z,20.60
2019-05-28T11:44:09.862Z,21.00
2019-05-28T11:46:38.720Z,20.90
2019-05-28T11:49:07.614Z,20.90
2019-05-28T11:51:36.583Z,20.80
2019-05-28T11:54:05.584Z,20.50
2019-05-28T11:56:34.435Z,19.60
2019-05-28T11:59:03.324Z,19.80
2019-05-28T12:01:35.039Z,20.00
2019-05-28T12:04:03.269Z,20.00
2019-05-28T12:06:37.968Z,20.60
2019-05-28T12:09:02.759Z,20.90
2019-05-28T12:11:31.704Z,20.70
2019-05-28T12:14:00.567Z,20.10
2019-05-28T12:16:29.399Z,20.50
2019-05-28T12:18:58.591Z,20.60
2019-05-28T12:21:27.677Z,20.20
2019-05-28T12:23:56.573Z,20.10
2019-05-28T12:26:25.699Z,20.60
2019-05-28T12:28:54.798Z,20.60
2019-05-28T12:31:23.803Z,20.80
2019-05-28T12:33:52.934Z,20.40
2019-05-28T12:36:21.819Z,20.20
2019-05-28T12:38:50.668Z,20.40
2019-05-28T12:41:19.636Z,20.70
2019-05-28T12:43:48.622Z,20.60
2019-05-28T12:46:17.794Z,20.10
2019-05-28T12:48:46.818Z,19.90
2019-05-28T12:51:15.804Z,19.90
2019-05-28T12:53:50.393Z,20.10
2019-05-28T12:56:15.217Z,20.40
2019-05-28T12:58:44.158Z,19.90
2019-05-28T13:01:13.139Z,20.40
2019-05-28T13:03:42.327Z,20.40
2019-05-28T13:06:11.636Z,21.00
2019-05-28T13:08:40.440Z,21.30
2019-05-28T13:11:09.240Z,20.90
2019-05-28T13:13:38.222Z,20.00
2019-05-28T13:16:07.060Z,20.40
2019-05-28T13:18:36.003Z,21.10
2019-05-28T13:21:04.856Z,21.70
2019-05-28T13:23:33.726Z,21.90
2019-05-28T13:26:02.644Z,21.60
2019-05-28T13:28:31.499Z,21.50
2019-05-28T13:31:00.473Z,20.90
2019-05-28T13:33:29.305Z,20.50
2019-05-28T13:35:58.690Z,20.10
2019-05-28T13:38:27.951Z,20.70
2019-05-28T13:40:56.919Z,21.20
2019-05-28T13:43:25.834Z,21.40
2019-05-28T13:45:54.876Z,20.70
2019-05-28T13:48:23.773Z,20.60
2019-05-28T13:50:52.667Z,20.50
2019-05-28T13:53:21.598Z,20.70
2019-05-28T13:55:50.449Z,21.20
2019-05-28T13:58:19.523Z,20.80
2019-05-28T14:00:48.501Z,21.30
2019-05-28T14:03:17.439Z,21.30
2019-05-28T14:05:46.392Z,20.50
2019-05-28T14:08:15.305Z,21.10
2019-05-28T14:10:44.310Z,21.10
2019-05-28T14:13:13.197Z,20.50
2019-05-28T14:15:42.228Z,20.60
2019-05-28T14:18:11.230Z,20.20
2019-05-28T14:20:40.140Z,20.60
2019-05-28T14:23:09.209Z,20.00
2019-05-28T14:25:38.106Z,20.40
2019-05-28T14:28:07.309Z,20.70
2019-05-28T14:30:36.935Z,20.40
2019-05-28T14:33:05.919Z,20.10
2019-05-28T14:35:34.927Z,20.00
2019-05-28T14:38:03.853Z,20.40
2019-05-28T14:40:33.485Z,20.90
2019-05-28T14:43:02.854Z,20.90
2019-05-28T14:45:31.858Z,20.80
2019-05-28T14:48:00.817Z,21.10
2019-05-28T14:50:29.778Z,20.50
2019-05-28T14:52:58.773Z,20.50
2019-05-28T14:55:27.921Z,20.20
2019-05-28T14:57:56.956Z,20.10
2019-05-28T15:00:26.283Z,20.30
2019-05-28T15:02:55.109Z,20.00
2019-05-28T15:05:24.278Z,20.10
2019-05-28T15:07:53.326Z,19.50
2019-05-28T15:10:23.730Z,19.70
2019-05-28T15:12:52.741Z,20.10
2019-05-28T15:15:35.160Z,20.00
2019-05-28T15:17:52.649Z,19.90
2019-05-28T15:20:21.859Z,19.60
2019-05-28T15:22:51.160Z,19.80
2019-05-28T15:25:20.331Z,19.40
2019-05-28T15:27:49.267Z,19.40
2019-05-28T15:30:18.738Z,19.60
2019-05-28T15:32:47.632Z,20.00
2019-05-28T15:35:16.896Z,19.90
2019-05-28T15:37:45.898Z,20.00
2019-05-28T15:40:15.099Z,20.50
2019-05-28T15:42:44.427Z,20.20
2019-05-28T15:45:13.839Z,20.70
2019-05-28T15:47:44.979Z,20.60
2019-05-28T15:50:14.553Z,20.80
2019-05-28T15:52:43.386Z,20.90
2019-05-28T15:55:12.539Z,20.40
2019-05-28T15:57:41.934Z,19.90
2019-05-28T16:00:14.487Z,20.10
2019-05-28T16:02:43.774Z,19.90
2019-05-28T16:05:13.187Z,19.30
2019-05-28T16:07:42.202Z,19.70
2019-05-28T16:10:11.605Z,19.80
2019-05-28T16:12:40.517Z,19.30
2019-05-28T16:15:09.977Z,19.40
2019-05-28T16:17:38.876Z,19.60
2019-05-28T16:20:08.717Z,18.90
2019-05-28T16:22:37.730Z,19.30
2019-05-28T16:25:06.885Z,19.20
2019-05-28T16:27:35.784Z,19.20
2019-05-28T16:30:05.971Z,19.70
2019-05-28T16:32:35.151Z,19.60
2019-05-28T16:35:04.380Z,20.10
2019-05-28T16:37:33.460Z,20.40
2019-05-28T16:40:14.450Z,20.50
2019-05-28T16:42:32.888Z,19.20
2019-05-28T16:45:01.736Z,19.60
2019-05-28T16:47:30.674Z,19.90
2019-05-28T16:49:59.766Z,20.00
2019-05-28T16:52:28.657Z,19.50
2019-05-28T16:54:57.561Z,19.40
2019-05-28T16:57:26.466Z,19.40
2019-05-28T16:59:55.415Z,19.10
2019-05-28T17:02:24.338Z,19.50
2019-05-28T17:04:53.217Z,19.50
2019-05-28T17:07:22.046Z,19.60
2019-05-28T17:09:51.007Z,19.30
2019-05-28T17:12:20.025Z,19.10
2019-05-28T17:14:48.980Z,19.20
2019-05-28T17:17:17.982Z,19.00
2019-05-28T17:19:46.958Z,19.20
2019-05-28T17:22:15.906Z,19.30
2019-05-28T17:24:45.064Z,19.30
2019-05-28T17:27:13.966Z,19.10
2019-05-28T17:29:43.343Z,19.40
2019-05-28T17:32:12.566Z,18.50
2019-05-28T17:34:41.642Z,18.40
2019-05-28T17:37:11.386Z,18.50
2019-05-28T17:39:40.678Z,18.70
2019-05-28T17:42:09.732Z,18.80
2019-05-28T17:44:40.957Z,18.70
2019-05-28T17:47:10.109Z,18.70
2019-05-28T17:49:39.079Z,17.90
2019-05-28T17:52:08.649Z,18.00
2019-05-28T17:54:37.564Z,18.00
2019-05-28T17:57:06.533Z,17.60
2019-05-28T17:59:35.577Z,17.80
2019-05-28T18:02:04.872Z,18.10
2019-05-28T18:04:33.771Z,17.60
2019-05-28T18:07:02.629Z,17.90
2019-05-28T18:09:31.533Z,17.70
2019-05-28T18:12:00.514Z,17.80
2019-05-28T18:14:29.438Z,17.60
2019-05-28T18:16:58.490Z,17.50
2019-05-28T18:19:27.345Z,18.00
2019-05-28T18:21:56.237Z,17.60
2019-05-28T18:24:29.965Z,17.20
2019-05-28T18:27:03.736Z,17.10
2019-05-28T18:29:32.667Z,17.20
2019-05-28T18:32:01.708Z,17.10
2019-05-28T18:34:35.507Z,17.40
2019-05-28T18:37:04.521Z,17.20
2019-05-28T18:39:33.492Z,17.60
2019-05-28T18:42:02.621Z,17.60
2019-05-28T18:44:33.197Z,18.00
2019-05-28T18:47:02.036Z,17.30
2019-05-28T18:49:32.138Z,17.60
2019-05-28T18:52:01.125Z,17.60
2019-05-28T18:54:30.098Z,17.30
2019-05-28T18:56:58.967Z,16.50
2019-05-28T18:59:28.006Z,16.40
2019-05-28T19:01:59.210Z,16.30
2019-05-28T19:04:27.668Z,16.30
2019-05-28T19:06:56.699Z,16.20
2019-05-28T19:09:25.633Z,16.10
2019-05-28T19:11:54.565Z,16.00
2019-05-28T19:14:23.628Z,15.90
2019-05-28T19:16:52.761Z,15.80
2019-05-28T19:19:21.869Z,15.90
2019-05-28T19:21:50.935Z,15.80
2019-05-28T19:24:19.825Z,15.90
2019-05-28T19:26:48.717Z,15.90
2019-05-28T19:29:17.702Z,15.80
2019-05-28T19:31:46.531Z,15.70
2019-05-28T19:34:15.957Z,15.70
2019-05-28T19:36:45.381Z,15.80
2019-05-28T19:39:14.977Z,15.80
2019-05-28T19:41:53.702Z,15.90
2019-05-28T19:44:14.896Z,15.80
2019-05-28T19:46:43.815Z,15.50
2019-05-28T19:49:12.717Z,15.50
2019-05-28T19:51:41.607Z,15.40
2019-05-28T19:54:10.495Z,15.30
2019-05-28T19:56:39.517Z,15.20
2019-05-28T19:59:08.351Z,15.20
2019-05-28T20:01:37.341Z,15.30
2019-05-28T20:04:06.455Z,15.20
2019-05-28T20:06:35.474Z,15.30
2019-05-28T20:09:06.060Z,15.20
2019-05-28T20:11:35.071Z,15.30
2019-05-28T20:14:05.657Z,15.40
2019-05-28T20:16:34.784Z,15.50
2019-05-28T20:19:03.788Z,15.30
2019-05-28T20:21:32.672Z,15.00
2019-05-28T20:24:01.786Z,15.10
2019-05-28T20:26:30.647Z,14.90
2019-05-28T20:29:08.640Z,14.90
2019-05-28T20:31:30.245Z,15.20
2019-05-28T20:33:59.145Z,15.20
2019-05-28T20:36:29.178Z,14.80
2019-05-28T20:38:59.534Z,14.80
2019-05-28T20:41:28.624Z,15.10
2019-05-28T20:43:57.563Z,15.20
2019-05-28T20:46:26.501Z,15.00
2019-05-28T20:48:55.384Z,14.80
2019-05-28T20:51:24.311Z,14.80
2019-05-28T20:53:53.248Z,14.80
2019-05-28T20:56:22.869Z,14.70
2019-05-28T20:58:51.921Z,14.70
2019-05-28T21:01:20.931Z,14.70
2019-05-28T21:03:49.814Z,14.50
2019-05-28T21:06:18.821Z,14.50
2019-05-28T21:08:48.090Z,14.40
2019-05-28T21:11:17.187Z,14.50
2019-05-28T21:13:46.077Z,14.30
2019-05-28T21:16:15.068Z,14.50
2019-05-28T21:18:47.214Z,14.60
2019-05-28T21:21:16.112Z,14.60
2019-05-28T21:23:49.966Z,14.20
2019-05-28T21:26:20.686Z,14.30
2019-05-28T21:28:54.250Z,14.40
2019-05-28T21:31:25.220Z,14.40
2019-05-28T21:33:54.948Z,14.30
2019-05-28T21:36:24.083Z,14.20
2019-05-28T21:38:55.179Z,14.10
2019-05-28T21:41:24.351Z,14.00
2019-05-28T21:43:53.830Z,13.90
2019-05-28T21:46:22.804Z,13.80
2019-05-28T21:48:52.361Z,13.90
2019-05-28T21:51:21.418Z,14.00
2019-05-28T21:53:50.269Z,13.80
2019-05-28T21:56:19.407Z,14.00
2019-05-28T21:58:48.536Z,14.10
2019-05-28T22:01:21.167Z,14.30
2019-05-28T22:03:50.086Z,14.20
2019-05-28T22:06:19.230Z,14.40
2019-05-28T22:08:51.690Z,14.50
2019-05-28T22:11:20.814Z,14.40
2019-05-28T22:13:50.061Z,14.50
2019-05-28T22:16:19.055Z,14.60
2019-05-28T22:18:48.242Z,14.50
2019-05-28T22:21:17.332Z,14.20
2019-05-28T22:23:46.294Z,14.20
2019-05-28T22:26:15.544Z,14.20
2019-05-28T22:28:44.503Z,14.30
2019-05-28T22:31:15.040Z,14.00
2019-05-28T22:33:44.470Z,13.80
2019-05-28T22:36:13.637Z,13.70
2019-05-28T22:38:44.323Z,13.90
2019-05-28T22:41:13.156Z,14.00
2019-05-28T22:43:43.003Z,14.20
2019-05-28T22:46:12.108Z,14.20
2019-05-28T22:48:41.064Z,14.30
2019-05-28T22:51:10.140Z,14.30
2019-05-28T22:53:40.336Z,14.00
2019-05-28T22:56:09.701Z,14.20
2019-05-28T22:58:39.217Z,14.30
2019-05-28T23:01:08.836Z,14.00
2019-05-28T23:03:37.753Z,13.60
2019-05-28T23:06:07.311Z,13.70
2019-05-28T23:08:46.955Z,13.60
2019-05-28T23:11:26.597Z,13.60
2019-05-28T23:14:18.550Z,13.70
2019-05-28T23:17:08.470Z,13.50
2019-05-28T23:19:37.521Z,13.50
2019-05-28T23:22:20.437Z,13.40
2019-05-28T23:25:17.606Z,13.10
2019-05-28T23:28:06.322Z,13.20
2019-05-28T23:30:53.348Z,12.80
2019-05-28T23:34:14.613Z,12.90
2019-05-28T23:36:44.213Z,13.00
2019-05-28T23:39:13.280Z,13.00
2019-05-28T23:41:42.291Z,12.80
2019-05-28T23:44:11.688Z,13.20
2019-05-28T23:46:47.086Z,13.30
2019-05-28T23:49:22.609Z,13.20
2019-05-28T23:52:01.296Z,13.20
2019-05-28T23:54:51.561Z,13.30
2019-05-28T23:57:43.272Z,13.50
